Time;durP1;ratioP1;P1;durP2;ratioP2;P2;SDS_P1;SDS_P2;PMS_P1;PMS_P2;Temp;Humidity;BMP_temperature;BMP_pressure;BME280_temperature;BME280_humidity;BME280_pressure;Samples;Min_cycle;Max_cycle;Signal;HPM_P1;HPM_P2
2021/12/06 00:01:06;;;;;;;32.88;25.13;;;;;;;2.40;89.77;101057.84;5134176;27;20478;-77
2021/12/06 00:04:21;;;;;;;25.70;22.80;;;;;;;2.46;90.13;101057.69;5134122;27;20236;-79
2021/12/06 00:06:50;;;;;;;27.70;23.47;;;;;;;2.46;90.33;101059.44;5143347;27;20034;-78
2021/12/06 00:09:19;;;;;;;27.33;23.83;;;;;;;2.45;90.17;101063.00;5115007;27;20039;-77
2021/12/06 00:11:45;;;;;;;28.93;24.67;;;;;;;2.38;90.29;101054.41;5133758;27;20489;-78
2021/12/06 00:14:11;;;;;;;28.47;23.23;;;;;;;2.50;90.29;101063.75;5133845;27;20393;-79
2021/12/06 00:16:36;;;;;;;29.67;24.77;;;;;;;2.45;90.66;101061.22;5134070;27;20034;-79
2021/12/06 00:19:03;;;;;;;30.07;24.90;;;;;;;2.58;90.52;101074.00;5133610;27;20038;-77
2021/12/06 00:21:29;;;;;;;27.30;23.97;;;;;;;2.46;90.40;101049.81;5133661;27;20418;-78
2021/12/06 00:23:55;;;;;;;29.40;23.87;;;;;;;2.58;90.76;101074.00;5114946;27;20025;-78
2021/12/06 00:26:21;;;;;;;29.90;24.47;;;;;;;2.55;90.34;101072.34;5133974;27;20031;-77
2021/12/06 00:28:48;;;;;;;30.40;25.02;;;;;;;2.60;90.76;101075.72;5133794;27;20062;-77
2021/12/06 00:31:14;;;;;;;27.30;24.27;;;;;;;2.68;90.59;101093.91;5132458;27;20027;-76
2021/12/06 00:33:41;;;;;;;29.98;24.70;;;;;;;2.60;90.70;101074.84;5117666;27;20030;-76
2021/12/06 00:36:15;;;;;;;28.02;24.63;;;;;;;2.55;90.56;101067.06;5145078;27;20029;-78
2021/12/06 00:38:43;;;;;;;28.20;24.38;;;;;;;2.72;90.88;101098.16;5145725;27;20359;-78
2021/12/06 00:41:08;;;;;;;32.47;24.93;;;;;;;2.75;90.89;101100.69;5114545;27;20134;-77
2021/12/06 00:43:33;;;;;;;30.17;24.27;;;;;;;2.69;90.90;101100.84;5133880;27;20102;-78
2021/12/06 00:45:59;;;;;;;32.58;25.65;;;;;;;2.73;90.79;101111.22;5115194;27;20027;-79
2021/12/06 00:48:24;;;;;;;31.60;26.60;;;;;;;2.76;91.11;101109.44;5133537;27;20027;-79
2021/12/06 00:50:50;;;;;;;33.90;25.27;;;;;;;2.79;90.39;101115.44;5133306;27;20031;-76
2021/12/06 00:53:15;;;;;;;30.03;25.40;;;;;;;2.82;90.76;101119.75;5133445;28;20072;-78
2021/12/06 00:55:41;;;;;;;33.27;24.60;;;;;;;2.77;91.37;101114.66;5133559;28;20024;-79
2021/12/06 00:58:06;;;;;;;29.47;25.57;;;;;;;2.80;90.58;101118.97;5133357;28;20102;-79
2021/12/06 01:00:37;;;;;;;33.10;26.13;;;;;;;2.84;91.21;101134.59;5133162;28;20457;-77
2021/12/06 01:03:07;;;;;;;31.58;24.92;;;;;;;2.87;91.28;101144.16;5134288;27;20130;-79
2021/12/06 01:05:32;;;;;;;31.77;25.33;;;;;;;2.89;91.22;101145.84;5152329;27;20481;-77
2021/12/06 01:07:58;;;;;;;31.27;25.05;;;;;;;2.82;90.92;101136.38;5153894;27;20119;-77
2021/12/06 01:10:25;;;;;;;32.33;27.40;;;;;;;2.87;91.37;101146.78;5153941;27;20039;-77
2021/12/06 01:12:51;;;;;;;38.37;27.73;;;;;;;2.91;91.35;101149.31;5121914;27;20031;-76
2021/12/06 01:15:17;;;;;;;32.40;26.83;;;;;;;2.92;91.13;101148.38;5116899;28;20047;-77
2021/12/06 01:17:43;;;;;;;36.55;27.48;;;;;;;2.82;91.55;101135.53;5112765;28;20019;-78
2021/12/06 01:20:11;;;;;;;32.22;26.75;;;;;;;2.92;91.84;101148.38;5112799;28;20027;-77
2021/12/06 01:22:45;;;;;;;32.17;27.52;;;;;;;2.85;91.91;101138.94;5127122;28;20447;-79
2021/12/06 01:25:30;;;;;;;38.55;29.25;;;;;;;2.89;92.07;101152.88;5132752;28;20026;-79
2021/12/06 01:41:35;;;;;;;35.92;28.65;;;;;;;3.02;91.91;101166.53;5130994;27;20042;-77
2021/12/06 01:44:22;;;;;;;39.78;29.98;;;;;;;3.06;92.16;101176.03;5114469;28;20089;-77
2021/12/06 01:47:21;;;;;;;44.40;30.05;;;;;;;3.07;92.51;101178.66;5132877;28;20031;-78
2021/12/06 01:49:50;;;;;;;35.85;30.70;;;;;;;3.03;92.59;101176.13;5116758;27;20557;-77
2021/12/06 01:52:19;;;;;;;35.45;28.75;;;;;;;3.01;92.66;101178.81;5136578;27;20102;-78
2021/12/06 01:54:45;;;;;;;36.58;28.52;;;;;;;3.03;91.75;101179.63;5136704;27;20031;-78
2021/12/06 01:57:11;;;;;;;35.75;28.30;;;;;;;3.02;92.01;101177.91;5136829;27;20045;-78
2021/12/06 01:59:36;;;;;;;35.97;28.23;;;;;;;3.01;92.66;101177.94;5136601;27;20026;-76
2021/12/06 02:02:03;;;;;;;35.13;28.87;;;;;;;3.00;92.68;101178.84;5136288;27;20380;-76
2021/12/06 02:04:32;;;;;;;34.20;28.27;;;;;;;3.03;92.94;101176.13;5136547;27;20103;-79
2021/12/06 02:06:59;;;;;;;35.28;28.70;;;;;;;3.04;92.23;101188.38;5136659;27;20050;-76
2021/12/06 02:09:26;;;;;;;36.17;29.83;;;;;;;3.04;92.29;101176.09;5136020;27;20047;-77
2021/12/06 02:11:52;;;;;;;36.97;29.00;;;;;;;3.04;92.14;101178.72;5136262;27;20041;-78
2021/12/06 02:17:12;;;;;;;34.80;28.70;;;;;;;3.05;92.11;101184.84;5136550;27;20446;-79
2021/12/06 02:19:45;;;;;;;34.95;28.23;;;;;;;3.08;92.31;101192.63;5136259;27;20443;-77
2021/12/06 02:22:14;;;;;;;35.87;29.80;;;;;;;3.03;92.39;101186.63;5136179;27;20049;-77
2021/12/06 02:24:40;;;;;;;37.38;29.67;;;;;;;3.02;92.20;101182.28;5136216;27;20019;-78
2021/12/06 02:27:11;;;;;;;37.33;28.95;;;;;;;3.08;92.13;101196.13;5136272;27;20034;-76
2021/12/06 02:29:37;;;;;;;35.80;29.05;;;;;;;3.04;92.90;101198.88;5136069;27;20105;-77
2021/12/06 02:32:09;;;;;;;35.53;27.88;;;;;;;3.03;92.75;101199.78;5135740;27;20027;-79
2021/12/06 02:34:34;;;;;;;39.25;29.25;;;;;;;2.98;92.58;101193.78;5135738;27;20458;-77
2021/12/06 02:37:00;;;;;;;35.33;28.75;;;;;;;2.91;92.63;101190.44;5136163;27;20072;-78
2021/12/06 02:39:28;;;;;;;36.30;28.98;;;;;;;2.92;92.62;101187.78;5135894;27;20058;-77
2021/12/06 02:41:54;;;;;;;35.60;28.27;;;;;;;2.93;93.21;101196.53;5135647;27;20537;-78
2021/12/06 02:44:20;;;;;;;36.83;28.85;;;;;;;3.02;92.51;101212.06;5136826;27;20027;-78
2021/12/06 02:46:46;;;;;;;34.72;27.88;;;;;;;3.06;92.38;101218.09;5146838;27;20050;-78
2021/12/06 02:49:12;;;;;;;36.17;28.50;;;;;;;3.05;93.24;101217.22;5134576;27;20031;-76
2021/12/06 02:51:38;;;;;;;38.80;29.70;;;;;;;2.99;92.60;101213.91;5135579;27;20368;-79
2021/12/06 02:54:03;;;;;;;41.63;30.10;;;;;;;3.06;93.03;101228.59;5116886;27;20035;-77
2021/12/06 02:56:39;;;;;;;35.75;27.88;;;;;;;3.00;93.32;101224.38;5122122;27;20048;-76
2021/12/06 02:59:08;;;;;;;38.25;29.58;;;;;;;3.02;92.70;101219.94;5134849;27;20029;-76
2021/12/06 03:01:40;;;;;;;36.83;29.30;;;;;;;2.99;93.25;101221.78;5135228;27;20114;-78
2021/12/06 03:04:07;;;;;;;34.67;28.70;;;;;;;2.91;92.93;101207.09;5135153;27;20369;-77
2021/12/06 03:06:33;;;;;;;35.67;28.58;;;;;;;2.98;92.80;101212.19;5134766;27;20033;-76
2021/12/06 03:09:08;;;;;;;35.13;27.70;;;;;;;2.99;93.05;101216.53;5134955;27;20043;-77
2021/12/06 03:11:44;;;;;;;40.72;29.05;;;;;;;2.95;92.90;101211.34;5116328;27;20039;-76
2021/12/06 03:14:15;;;;;;;36.50;29.80;;;;;;;2.98;93.06;101233.22;5135053;27;20469;-76
2021/12/06 03:16:40;;;;;;;44.67;30.50;;;;;;;3.00;92.93;101231.38;5134896;27;20035;-78
2021/12/06 03:19:07;;;;;;;39.42;29.88;;;;;;;2.99;92.72;101229.66;5134919;27;20037;-78
2021/12/06 03:21:33;;;;;;;40.45;30.35;;;;;;;3.02;93.21;101240.09;5135031;27;20075;-79
2021/12/06 03:23:59;;;;;;;39.55;30.00;;;;;;;3.06;93.21;101231.22;5135168;27;20021;-78
2021/12/06 03:26:26;;;;;;;41.47;31.00;;;;;;;3.03;92.93;101226.03;5134718;27;20027;-77
2021/12/06 03:28:52;;;;;;;37.87;28.47;;;;;;;3.07;93.22;101232.97;5114276;28;20486;-76
2021/12/06 03:31:19;;;;;;;39.27;29.07;;;;;;;3.01;93.12;101231.34;5095245;28;20046;-77
2021/12/06 03:33:48;;;;;;;40.38;30.30;;;;;;;3.02;92.94;101226.97;5095745;28;20027;-77
2021/12/06 03:36:15;;;;;;;43.28;32.60;;;;;;;3.01;93.19;101220.00;5096131;28;20046;-78
2021/12/06 03:38:41;;;;;;;44.40;31.80;;;;;;;3.06;93.64;101233.84;5129310;27;20023;-78
2021/12/06 03:41:09;;;;;;;43.30;32.25;;;;;;;3.05;93.56;101238.25;5134452;27;20465;-78
2021/12/06 03:43:35;;;;;;;43.08;31.17;;;;;;;3.06;93.10;101240.00;5134341;27;20027;-76
2021/12/06 03:46:01;;;;;;;39.47;30.65;;;;;;;3.05;93.30;101246.13;5134628;27;20102;-77
2021/12/06 03:48:27;;;;;;;38.15;30.63;;;;;;;3.00;93.15;101236.63;5115412;27;20037;-77
2021/12/06 03:50:52;;;;;;;41.28;32.72;;;;;;;2.92;93.44;101227.19;5145640;27;20030;-75
2021/12/06 03:53:18;;;;;;;42.92;31.75;;;;;;;3.01;93.33;101233.13;5135811;27;20081;-79
2021/12/06 03:55:44;;;;;;;43.53;32.38;;;;;;;2.98;93.52;101226.19;5134505;27;20027;-78
2021/12/06 03:58:09;;;;;;;43.45;32.38;;;;;;;3.08;93.71;101239.94;5134011;27;20023;-78
2021/12/06 04:00:35;;;;;;;43.00;31.48;;;;;;;3.01;93.27;101233.13;5134112;27;20084;-78
2021/12/06 04:03:00;;;;;;;44.22;32.20;;;;;;;2.99;93.38;101232.28;5134105;27;20058;-77
2021/12/06 04:05:26;;;;;;;45.58;32.05;;;;;;;3.00;93.41;101234.91;5134281;27;20061;-78
2021/12/06 04:07:51;;;;;;;39.05;29.83;;;;;;;2.99;92.59;101240.19;5133663;27;20027;-77
2021/12/06 04:10:17;;;;;;;42.45;32.80;;;;;;;3.03;93.17;101247.06;5134193;27;20465;-77
2021/12/06 04:12:43;;;;;;;46.17;32.65;;;;;;;3.04;92.96;101257.56;5133734;27;20569;-79
2021/12/06 04:15:13;;;;;;;42.90;30.83;;;;;;;3.00;93.10;101258.53;5114998;27;20031;-77
2021/12/06 04:17:40;;;;;;;40.58;30.75;;;;;;;3.03;93.01;101257.56;5133802;27;20015;-78
2021/12/06 04:20:08;;;;;;;44.67;30.63;;;;;;;3.02;92.94;101255.84;5133699;27;20026;-77
2021/12/06 04:22:33;;;;;;;44.58;33.45;;;;;;;3.08;93.41;101251.31;5133874;27;20034;-77
2021/12/06 04:25:02;;;;;;;42.72;32.53;;;;;;;3.02;93.38;101238.31;5133910;27;20020;-80
2021/12/06 04:27:29;;;;;;;46.58;34.42;;;;;;;3.09;93.76;101246.91;5133178;27;20021;-79
2021/12/06 04:29:54;;;;;;;45.22;33.28;;;;;;;3.05;93.17;101253.16;5101290;28;20114;-76
2021/12/06 04:32:21;;;;;;;43.08;32.25;;;;;;;2.97;92.86;101250.72;5113337;28;20458;-78
2021/12/06 04:34:47;;;;;;;42.97;33.78;;;;;;;2.93;92.60;101243.81;5094638;28;20026;-77
2021/12/06 04:37:12;;;;;;;44.22;32.78;;;;;;;2.83;92.76;101243.19;5113326;28;20098;-76
2021/12/06 04:39:39;;;;;;;38.67;30.73;;;;;;;2.89;92.46;101260.56;5127646;27;20027;-79
2021/12/06 04:42:05;;;;;;;37.10;29.98;;;;;;;2.69;92.49;101243.53;5133845;27;20034;-80
2021/12/06 04:44:31;;;;;;;36.60;28.65;;;;;;;2.72;91.83;101261.81;5133402;27;20080;-77
2021/12/06 04:46:57;;;;;;;33.88;27.10;;;;;;;2.70;92.14;101262.75;5133694;27;20023;-77
2021/12/06 04:49:25;;;;;;;36.60;28.55;;;;;;;2.57;91.51;101251.69;5114760;27;20235;-76
2021/12/06 04:51:52;;;;;;;35.50;27.33;;;;;;;2.43;91.45;101248.53;5133557;27;20026;-77
2021/12/06 04:54:21;;;;;;;37.15;29.20;;;;;;;2.48;91.77;101273.78;5133343;27;20111;-79
2021/12/06 04:56:51;;;;;;;35.28;27.70;;;;;;;2.41;92.06;101279.19;5140550;27;20033;-78
2021/12/06 04:59:25;;;;;;;35.10;26.88;;;;;;;2.36;91.36;101276.69;5137854;27;20084;-77
2021/12/06 05:01:53;;;;;;;35.45;29.25;;;;;;;2.25;91.21;101276.91;5133416;28;20080;-77
2021/12/06 05:04:27;;;;;;;33.53;27.90;;;;;;;2.20;91.24;101267.41;5133277;28;20102;-78
2021/12/06 05:06:57;;;;;;;34.40;26.60;;;;;;;2.16;91.60;101271.84;5133076;28;20038;-78
2021/12/06 05:09:27;;;;;;;37.55;28.20;;;;;;;2.15;90.95;101275.38;5133083;28;20054;-79
2021/12/06 05:11:54;;;;;;;37.00;29.60;;;;;;;2.14;91.03;101285.91;5133337;28;20038;-78
2021/12/06 05:14:20;;;;;;;37.63;27.63;;;;;;;2.00;91.36;101276.56;5133209;28;20027;-78
2021/12/06 05:16:45;;;;;;;33.45;26.70;;;;;;;1.96;90.89;101279.28;5133353;28;20034;-78
2021/12/06 05:19:10;;;;;;;35.70;27.03;;;;;;;2.03;90.42;101294.00;5132852;28;20111;-77
2021/12/06 05:21:36;;;;;;;37.87;28.10;;;;;;;1.89;90.53;101293.44;5133370;28;20038;-76
2021/12/06 05:24:02;;;;;;;34.13;27.07;;;;;;;1.85;91.01;101287.34;5136080;27;20150;-78
2021/12/06 05:26:28;;;;;;;41.20;29.27;;;;;;;1.90;90.71;101305.63;5137311;27;20030;-78
2021/12/06 05:28:58;;;;;;;36.93;29.07;;;;;;;1.81;90.79;101302.28;5136918;27;20031;-79
2021/12/06 05:31:24;;;;;;;36.90;29.10;;;;;;;1.82;90.94;101303.16;5137337;27;20064;-79
2021/12/06 05:33:54;;;;;;;88.77;31.33;;;;;;;1.88;91.18;101302.16;5137008;27;20492;-77
2021/12/06 05:36:20;;;;;;;132.27;33.42;;;;;;;1.76;91.04;101277.91;5137233;27;20050;-77
2021/12/06 05:38:45;;;;;;;107.97;31.73;;;;;;;1.90;91.66;101297.75;5136703;27;20065;-76
2021/12/06 05:41:11;;;;;;;276.97;36.27;;;;;;;1.85;92.26;101295.22;5136998;27;20019;-77
2021/12/06 05:43:36;;;;;;;107.23;30.67;;;;;;;1.69;92.22;101264.97;5117979;27;20042;-75
2021/12/06 05:46:03;;;;;;;203.30;36.27;;;;;;;1.84;92.48;101290.88;5136875;27;20035;-78
2021/12/06 05:48:28;;;;;;;181.37;32.33;;;;;;;1.86;92.48;101298.72;5136467;27;20019;-76
2021/12/06 05:50:54;;;;;;;150.07;35.93;;;;;;;1.84;92.95;101288.25;5136946;27;20088;-79
2021/12/06 05:53:21;;;;;;;206.33;33.07;;;;;;;1.88;92.83;101304.78;5136712;27;20019;-81
2021/12/06 05:55:47;;;;;;;145.87;32.87;;;;;;;1.86;93.29;101290.88;5136682;27;20019;-77
2021/12/06 05:58:15;;;;;;;162.17;32.43;;;;;;;1.95;93.54;101304.66;5136321;27;20076;-78
2021/12/06 06:00:42;;;;;;;120.37;31.93;;;;;;;1.99;93.49;101305.44;5142463;27;20500;-76
2021/12/06 06:03:08;;;;;;;129.20;33.00;;;;;;;2.00;93.33;101310.69;5143012;27;20019;-76
2021/12/06 06:05:35;;;;;;;140.60;32.13;;;;;;;1.88;93.43;101296.91;5136608;27;20027;-78
2021/12/06 06:08:01;;;;;;;134.30;33.17;;;;;;;1.95;93.48;101306.41;5136047;27;20031;-78
2021/12/06 06:10:30;;;;;;;111.67;31.53;;;;;;;2.00;93.48;101318.53;5118024;27;20023;-76
2021/12/06 06:12:55;;;;;;;126.13;31.57;;;;;;;1.89;93.62;101310.03;5136485;27;20441;-80
2021/12/06 06:15:21;;;;;;;149.10;34.77;;;;;;;2.00;93.94;101325.53;5136220;27;20063;-79
2021/12/06 06:17:47;;;;;;;134.03;32.90;;;;;;;2.01;94.30;101328.13;5135834;27;20156;-76
2021/12/06 06:20:17;;;;;;;113.77;34.40;;;;;;;1.96;94.35;101323.88;5136287;27;20023;-78
2021/12/06 06:22:43;;;;;;;125.75;32.08;;;;;;;2.01;94.10;101340.38;5135984;27;20023;-77
2021/12/06 06:25:09;;;;;;;97.07;31.80;;;;;;;1.98;94.17;101332.59;5136223;27;20374;-80
2021/12/06 06:27:34;;;;;;;165.43;34.60;;;;;;;2.00;94.19;101341.25;5125130;27;20381;-76
2021/12/06 06:30:00;;;;;;;116.43;34.70;;;;;;;2.00;94.99;101336.00;5136179;27;20023;-78
2021/12/06 06:32:25;;;;;;;117.00;33.80;;;;;;;2.01;94.91;101341.25;5136178;27;20026;-80
2021/12/06 06:34:50;;;;;;;155.63;35.23;;;;;;;1.98;94.39;101340.44;5135303;27;20023;-78
2021/12/06 06:37:16;;;;;;;118.17;36.07;;;;;;;1.98;95.12;101336.06;5117281;27;20070;-78
2021/12/06 06:39:42;;;;;;;153.50;37.13;;;;;;;1.72;95.17;101286.75;5139526;27;20034;-76
2021/12/06 06:42:10;;;;;;;126.13;36.60;;;;;;;2.02;95.97;101339.47;5139368;27;20065;-77
2021/12/06 06:44:35;;;;;;;109.47;38.27;;;;;;;2.01;95.65;101328.13;5138466;27;20425;-79
2021/12/06 06:47:01;;;;;;;152.03;36.67;;;;;;;1.96;95.58;101327.34;5126518;27;20039;-78
2021/12/06 06:49:30;;;;;;;192.70;38.57;;;;;;;1.97;95.12;101338.69;5138439;27;20512;-79
2021/12/06 06:51:56;;;;;;;104.68;37.65;;;;;;;1.95;95.82;101327.41;5136744;27;20034;-78
2021/12/06 06:54:21;;;;;;;161.23;37.77;;;;;;;1.99;95.96;101327.28;5135641;27;20105;-77
2021/12/06 06:56:47;;;;;;;168.52;36.92;;;;;;;2.03;95.98;101341.22;5148975;27;20434;-77
2021/12/06 06:59:12;;;;;;;129.17;36.90;;;;;;;2.07;95.87;101347.28;5156143;27;20030;-79
2021/12/06 07:01:37;;;;;;;171.60;39.53;;;;;;;2.08;95.80;101351.63;5142825;27;20031;-79
2021/12/06 07:04:03;;;;;;;126.77;38.13;;;;;;;1.99;96.27;101329.91;5139437;27;20038;-76
2021/12/06 07:06:29;;;;;;;176.70;40.95;;;;;;;2.10;96.53;101342.81;5122840;27;20522;-77
2021/12/06 07:08:56;;;;;;;147.70;38.53;;;;;;;2.08;96.11;101328.88;5116790;27;20049;-77
2021/12/06 07:11:23;;;;;;;145.37;39.70;;;;;;;2.09;95.76;101334.97;5133871;27;20039;-79
2021/12/06 07:13:48;;;;;;;126.32;36.92;;;;;;;2.14;95.54;101344.47;5136251;27;20042;-77
2021/12/06 07:16:15;;;;;;;117.10;36.53;;;;;;;2.15;95.83;101351.47;5136352;27;20031;-76
2021/12/06 07:18:41;;;;;;;97.72;38.17;;;;;;;2.04;95.95;101346.44;5120127;27;20125;-77
2021/12/06 07:21:07;;;;;;;96.23;37.83;;;;;;;2.01;95.57;101345.63;5116505;27;20037;-77
2021/12/06 07:23:38;;;;;;;87.57;37.15;;;;;;;2.10;96.20;101365.56;5134791;27;20031;-79
2021/12/06 07:26:04;;;;;;;79.53;39.30;;;;;;;2.11;95.92;101362.91;5135076;27;20019;-78
2021/12/06 07:28:29;;;;;;;65.13;38.65;;;;;;;1.98;95.88;101343.06;5134816;27;20113;-76
2021/12/06 07:30:54;;;;;;;53.35;37.72;;;;;;;2.15;95.80;101361.97;5135001;27;20051;-78
2021/12/06 07:33:20;;;;;;;57.30;38.27;;;;;;;2.22;95.99;101370.56;5134370;27;20076;-77
2021/12/06 07:35:45;;;;;;;59.67;36.85;;;;;;;2.21;95.68;101368.88;5134785;27;20023;-81
2021/12/06 07:38:12;;;;;;;67.90;39.72;;;;;;;2.31;96.10;101380.88;5134784;27;20030;-76
2021/12/06 07:40:38;;;;;;;65.22;38.63;;;;;;;2.28;95.86;101376.56;5134716;27;20027;-77
2021/12/06 07:43:03;;;;;;;53.35;37.03;;;;;;;2.35;95.94;101377.28;5134494;27;20075;-77
2021/12/06 07:45:29;;;;;;;56.03;38.77;;;;;;;2.35;95.89;101369.41;5115982;27;20461;-79
2021/12/06 07:47:54;;;;;;;58.73;38.73;;;;;;;2.36;95.46;101355.41;5133539;27;20039;-78
2021/12/06 07:50:21;;;;;;;60.13;40.83;;;;;;;2.45;95.54;101370.97;5134686;27;20106;-78
2021/12/06 07:52:48;;;;;;;64.80;40.83;;;;;;;2.48;95.58;101363.03;5133707;27;20696;-78
2021/12/06 07:55:15;;;;;;;65.32;42.40;;;;;;;2.51;95.41;101356.84;5124950;27;20074;-80
2021/12/06 07:57:40;;;;;;;67.40;41.43;;;;;;;2.53;95.50;101351.56;5127716;27;20023;-78
2021/12/06 08:00:10;;;;;;;80.83;46.17;;;;;;;2.52;95.63;101347.22;5116096;27;20041;-78
2021/12/06 08:02:35;;;;;;;74.97;45.67;;;;;;;2.54;95.27;101338.41;5115398;27;20050;-80
2021/12/06 08:07:46;;;;;;;71.82;46.00;;;;;;;2.60;95.08;101340.03;5120708;27;20099;-78
2021/12/06 08:10:12;;;;;;;91.82;48.47;;;;;;;2.54;95.44;101337.53;5132738;27;20051;-78
2021/12/06 08:12:37;;;;;;;76.57;47.53;;;;;;;2.53;95.49;101344.56;5133533;27;20031;-80
2021/12/06 08:15:04;;;;;;;85.13;50.33;;;;;;;2.45;95.41;101328.97;5133524;27;20046;-78
2021/12/06 08:17:29;;;;;;;80.32;48.80;;;;;;;2.47;95.56;101332.44;5115103;27;20028;-79
2021/12/06 08:19:54;;;;;;;94.35;51.10;;;;;;;2.50;95.14;101350.75;5131344;27;20110;-78
2021/12/06 08:22:20;;;;;;;114.88;52.75;;;;;;;2.42;95.22;101336.06;5131306;27;20472;-78
2021/12/06 08:24:45;;;;;;;95.07;52.72;;;;;;;2.45;95.69;101343.84;5133585;27;20023;-80
2021/12/06 08:27:11;;;;;;;85.93;51.97;;;;;;;2.43;95.82;101343.88;5111525;27;20015;-78
2021/12/06 08:29:36;;;;;;;81.85;50.92;;;;;;;2.41;96.23;101329.06;5127280;27;20496;-79
2021/12/06 08:32:02;;;;;;;82.28;51.53;;;;;;;2.45;96.06;101342.09;5113902;27;20389;-77
2021/12/06 08:34:27;;;;;;;91.18;46.13;;;;;;;2.48;95.23;101349.03;5114060;27;20035;-78
2021/12/06 08:36:52;;;;;;;81.85;47.05;;;;;;;2.46;95.69;101356.94;5135701;27;20110;-79
2021/12/06 08:39:18;;;;;;;91.25;50.80;;;;;;;2.43;95.82;101367.50;5133356;27;20038;-78
2021/12/06 08:41:43;;;;;;;83.10;49.53;;;;;;;2.47;95.76;101374.44;5130925;27;20043;-80
2021/12/06 08:44:09;;;;;;;86.32;50.13;;;;;;;2.46;95.43;101375.31;5134428;27;20031;-77
2021/12/06 08:46:38;;;;;;;86.00;49.60;;;;;;;2.43;95.74;101382.41;5140554;27;20444;-78
2021/12/06 08:49:05;;;;;;;79.30;50.37;;;;;;;2.44;95.95;101378.84;5114840;28;20536;-78
2021/12/06 08:51:47;;;;;;;92.07;49.03;;;;;;;2.46;96.61;101391.06;5139726;27;20034;-78
2021/12/06 08:54:14;;;;;;;87.55;49.67;;;;;;;2.55;96.17;101390.00;5133014;27;20027;-78
2021/12/06 08:56:40;;;;;;;83.70;48.83;;;;;;;2.48;96.01;101384.03;5133273;27;20026;-79
2021/12/06 08:59:06;;;;;;;85.43;48.90;;;;;;;2.56;95.64;101383.88;5148261;27;20468;-78
2021/12/06 09:01:32;;;;;;;89.32;48.65;;;;;;;2.49;95.75;101382.25;5144955;27;20023;-77
2021/12/06 09:03:58;;;;;;;96.05;46.72;;;;;;;2.57;95.50;101398.72;5146455;27;20071;-80
2021/12/06 09:06:24;;;;;;;87.85;45.88;;;;;;;2.59;95.24;101393.44;5120885;27;20061;-80
2021/12/06 09:08:49;;;;;;;83.30;46.70;;;;;;;2.50;94.85;101384.00;5147964;27;20515;-77
2021/12/06 09:11:15;;;;;;;77.25;48.03;;;;;;;2.58;95.61;101402.22;5121442;27;20038;-79
2021/12/06 09:13:41;;;;;;;85.95;47.15;;;;;;;2.63;95.42;101402.97;5121589;27;20079;-77
2021/12/06 09:16:08;;;;;;;83.85;48.10;;;;;;;2.47;95.81;101384.94;5121409;27;20023;-79
2021/12/06 09:18:38;;;;;;;73.32;43.55;;;;;;;2.60;95.53;101403.91;5121210;27;20719;-79
2021/12/06 09:21:07;;;;;;;76.10;45.15;;;;;;;2.49;95.36;101408.50;5121504;27;20027;-79
2021/12/06 09:23:33;;;;;;;76.43;44.63;;;;;;;2.42;96.25;101386.78;5139889;27;20105;-79
2021/12/06 09:25:58;;;;;;;80.87;43.70;;;;;;;2.45;96.29;101394.59;5140210;27;20058;-76
2021/12/06 09:28:25;;;;;;;78.47;41.63;;;;;;;2.47;95.86;101394.53;5121579;27;20035;-76
2021/12/06 09:30:51;;;;;;;74.13;44.00;;;;;;;2.46;95.91;101411.19;5139947;27;20034;-79
2021/12/06 09:33:18;;;;;;;76.23;41.73;;;;;;;2.42;95.80;101399.91;5139983;27;20027;-78
2021/12/06 09:35:47;;;;;;;71.50;41.67;;;;;;;2.46;95.20;101408.56;5140079;27;20026;-79
2021/12/06 09:38:16;;;;;;;79.87;44.27;;;;;;;2.39;95.94;101396.50;5140185;27;20034;-78
2021/12/06 09:40:45;;;;;;;89.00;46.93;;;;;;;2.45;95.59;101412.13;5140040;27;20030;-78
2021/12/06 09:43:13;;;;;;;97.90;48.42;;;;;;;2.45;95.53;101404.25;5139838;27;20034;-79
2021/12/06 09:45:39;;;;;;;113.60;52.67;;;;;;;2.42;95.58;101399.91;5140051;27;20027;-79
2021/12/06 09:48:06;;;;;;;115.87;52.90;;;;;;;2.45;96.02;101401.63;5140032;27;20026;-76
2021/12/06 09:50:36;;;;;;;148.57;56.93;;;;;;;2.40;96.00;101399.06;5139957;27;20033;-76
2021/12/06 09:53:09;;;;;;;161.65;57.53;;;;;;;2.44;95.97;101406.00;5139574;27;20363;-78
2021/12/06 09:55:35;;;;;;;158.40;57.73;;;;;;;2.40;96.33;101403.47;5139942;27;20027;-76
2021/12/06 09:58:04;;;;;;;152.40;60.72;;;;;;;2.32;96.43;101390.47;5121317;27;20019;-77
2021/12/06 10:00:33;;;;;;;157.67;60.70;;;;;;;2.42;96.38;101401.69;5139926;27;20087;-77
2021/12/06 10:02:58;;;;;;;155.57;58.27;;;;;;;2.50;96.63;101411.13;5120486;27;20533;-77
2021/12/06 10:05:29;;;;;;;151.70;56.07;;;;;;;2.36;96.05;101380.81;5139753;27;20102;-77
2021/12/06 10:07:56;;;;;;;164.32;56.47;;;;;;;2.45;96.18;101394.59;5121034;27;20046;-79
2021/12/06 10:10:22;;;;;;;137.32;56.83;;;;;;;2.43;96.49;101390.28;5136508;27;20083;-77
2021/12/06 10:12:52;;;;;;;141.93;56.23;;;;;;;2.46;96.91;101392.81;5118043;27;20103;-79
2021/12/06 10:15:21;;;;;;;134.35;54.22;;;;;;;2.42;96.86;101375.44;5136081;27;20034;-78
2021/12/06 10:17:47;;;;;;;135.65;52.15;;;;;;;2.38;96.35;101377.25;5117930;27;20030;-80
2021/12/06 10:20:13;;;;;;;124.70;52.53;;;;;;;2.40;96.68;101366.72;5136370;27;20027;-77
2021/12/06 10:22:38;;;;;;;110.80;48.45;;;;;;;2.45;95.90;101372.72;5136326;27;20015;-79
2021/12/06 10:25:05;;;;;;;103.20;49.20;;;;;;;2.46;95.23;101366.56;5135951;27;20363;-78
2021/12/06 10:27:31;;;;;;;101.50;45.93;;;;;;;2.40;95.37;101364.94;5116990;27;20019;-77
2021/12/06 10:30:05;;;;;;;99.53;45.70;;;;;;;2.32;95.78;101352.88;5135401;27;20445;-77
2021/12/06 10:32:33;;;;;;;99.43;45.47;;;;;;;2.38;95.69;101361.50;5135919;27;20072;-78
2021/12/06 10:35:02;;;;;;;86.57;42.70;;;;;;;2.30;94.92;101349.44;5134758;27;20385;-77
2021/12/06 10:37:51;;;;;;;75.90;39.08;;;;;;;2.39;94.40;101373.72;5134173;27;20027;-77
2021/12/06 10:40:24;;;;;;;79.05;40.78;;;;;;;2.32;94.08;101360.75;5135114;27;20058;-76
2021/12/06 10:42:52;;;;;;;84.40;41.90;;;;;;;2.24;94.65;101358.31;5135913;27;20038;-79
2021/12/06 10:45:19;;;;;;;79.93;42.30;;;;;;;2.22;95.11;101358.31;5135656;27;20080;-77
2021/12/06 10:48:16;;;;;;;76.17;40.63;;;;;;;2.26;94.40;101348.63;5115332;28;20027;-77
2021/12/06 10:50:51;;;;;;;70.10;37.80;;;;;;;2.33;93.82;101344.13;5096933;28;20035;-78
2021/12/06 10:53:19;;;;;;;64.10;35.80;;;;;;;2.23;94.31;101340.81;5107913;27;20538;-77
2021/12/06 10:55:50;;;;;;;70.47;38.00;;;;;;;2.20;94.36;101320.75;5136155;27;20038;-79
2021/12/06 10:58:19;;;;;;;70.37;38.23;;;;;;;2.25;94.68;101323.28;5135230;27;20046;-79
2021/12/06 11:00:47;;;;;;;88.65;42.42;;;;;;;2.26;94.71;101306.63;5135388;27;20461;-79
2021/12/06 11:03:33;;;;;;;106.90;43.08;;;;;;;2.20;94.65;101302.38;5134852;27;20016;-78
2021/12/06 11:06:07;;;;;;;72.70;38.65;;;;;;;2.23;94.78;101307.56;5135605;27;20015;-79
2021/12/06 11:08:37;;;;;;;65.30;35.47;;;;;;;2.25;94.36;101315.41;5134633;27;20031;-78
2021/12/06 11:11:09;;;;;;;52.97;30.67;;;;;;;2.20;93.92;101309.38;5135444;27;20385;-79
2021/12/06 11:13:38;;;;;;;51.80;29.63;;;;;;;2.17;93.40;101298.94;5135533;27;20045;-78
2021/12/06 11:16:12;;;;;;;58.13;29.80;;;;;;;2.17;93.56;101307.69;5135292;27;20115;-79
2021/12/06 11:18:42;;;;;;;57.30;32.22;;;;;;;1.99;93.16;101285.31;5134789;27;20023;-77
2021/12/06 11:21:39;;;;;;;59.42;32.88;;;;;;;2.14;93.24;101293.78;5116715;27;20473;-76
2021/12/06 11:24:19;;;;;;;52.90;30.07;;;;;;;2.07;92.82;101273.81;5135165;27;20026;-78
2021/12/06 11:26:58;;;;;;;48.35;29.00;;;;;;;2.04;92.63;101269.50;5135203;27;20076;-79
2021/12/06 11:29:35;;;;;;;50.55;30.73;;;;;;;2.08;92.67;101268.53;5115150;27;20492;-76
2021/12/06 11:32:12;;;;;;;49.60;29.77;;;;;;;2.03;92.71;101273.88;5116559;27;20030;-78
2021/12/06 11:34:49;;;;;;;43.97;27.10;;;;;;;2.02;92.18;101284.41;5134802;27;20024;-76
2021/12/06 11:37:21;;;;;;;42.00;26.83;;;;;;;1.94;92.21;101281.94;5135008;27;20123;-78